Time;durP1;ratioP1;P1;durP2;ratioP2;P2;SDS_P1;SDS_P2;PMS_P1;PMS_P2;Temp;Humidity;BMP_temperature;BMP_pressure;BME280_temperature;BME280_humidity;BME280_pressure;Samples;Min_cycle;Max_cycle;Signal;HPM_P1;HPM_P2
2021/04/03 00:02:09;;;;;;;8.60;5.37;;;6.70;99.10;;;;;;4958716;28;20453;-83
2021/04/03 00:04:34;;;;;;;7.43;5.03;;;6.70;99.00;;;;;;4944632;28;20204;-83
2021/04/03 00:07:00;;;;;;;7.00;5.43;;;6.70;98.90;;;;;;4947375;28;20456;-83
2021/04/03 00:09:25;;;;;;;7.00;5.73;;;6.70;98.80;;;;;;4947457;28;20237;-82
2021/04/03 00:11:51;;;;;;;5.30;4.80;;;6.50;99.10;;;;;;4946950;28;20190;-82
2021/04/03 00:14:17;;;;;;;10.23;5.00;;;6.50;99.20;;;;;;4945532;28;20197;-83
2021/04/03 00:16:43;;;;;;;11.60;5.73;;;6.50;98.80;;;;;;4945425;28;20239;-83
2021/04/03 00:19:08;;;;;;;6.43;5.13;;;6.50;98.80;;;;;;4949120;28;20215;-82
2021/04/03 00:21:34;;;;;;;7.67;5.33;;;6.40;99.30;;;;;;4945839;28;20565;-82
2021/04/03 00:24:00;;;;;;;8.53;4.87;;;6.30;98.90;;;;;;4947180;28;20305;-81
2021/04/03 00:26:25;;;;;;;7.33;5.17;;;6.30;98.30;;;;;;4963421;28;20878;-81
2021/04/03 00:28:51;;;;;;;9.63;5.13;;;6.30;98.60;;;;;;4945656;28;20613;-82
2021/04/03 00:31:18;;;;;;;10.20;5.33;;;6.30;98.10;;;;;;4962241;28;20673;-82
2021/04/03 00:33:44;;;;;;;8.87;5.00;;;6.30;98.50;;;;;;4947800;28;20615;-82
2021/04/03 00:36:10;;;;;;;8.10;5.97;;;6.30;98.00;;;;;;4948913;28;20472;-82
2021/04/03 00:38:35;;;;;;;9.57;5.70;;;6.40;97.40;;;;;;4948282;28;20210;-82
2021/04/03 00:41:01;;;;;;;9.63;6.57;;;6.30;97.40;;;;;;4950897;28;20732;-82
2021/04/03 00:43:26;;;;;;;7.90;6.67;;;6.30;97.30;;;;;;4950697;28;20691;-82
2021/04/03 00:45:52;;;;;;;7.10;6.37;;;6.30;97.60;;;;;;4943456;28;20643;-82
2021/04/03 00:48:19;;;;;;;10.47;6.60;;;6.30;97.30;;;;;;4945565;28;20623;-82
2021/04/03 00:50:47;;;;;;;10.47;6.50;;;6.20;97.80;;;;;;4965305;28;20288;-82
2021/04/03 00:53:18;;;;;;;10.83;6.13;;;6.10;97.80;;;;;;4962148;28;20482;-82
2021/04/03 00:55:45;;;;;;;9.60;6.23;;;6.20;97.60;;;;;;4961201;28;20457;-82
2021/04/03 00:58:11;;;;;;;9.60;6.40;;;6.20;97.60;;;;;;4948795;28;20446;-83
2021/04/03 01:00:38;;;;;;;7.47;6.00;;;6.30;98.00;;;;;;4952503;28;20513;-82
2021/04/03 01:03:04;;;;;;;8.73;6.53;;;6.20;98.20;;;;;;4952474;28;20232;-82
2021/04/03 01:05:30;;;;;;;10.17;6.50;;;6.10;98.10;;;;;;4947722;28;20461;-82
2021/04/03 01:07:56;;;;;;;10.90;6.40;;;6.20;98.20;;;;;;4965748;28;20433;-82
2021/04/03 01:10:26;;;;;;;9.90;6.50;;;6.10;97.50;;;;;;4946421;28;20729;-81
2021/04/03 01:13:20;;;;;;;14.17;6.47;;;6.00;98.10;;;;;;4954572;28;20240;-81
2021/04/03 01:16:03;;;;;;;8.30;6.70;;;6.10;97.60;;;;;;4967244;28;20447;-81
2021/04/03 01:19:08;;;;;;;11.37;6.50;;;6.20;97.50;;;;;;4949728;28;20793;-82
2021/04/03 01:21:56;;;;;;;8.33;5.90;;;6.20;97.30;;;;;;4953605;28;20453;-82
2021/04/03 01:25:02;;;;;;;6.63;5.80;;;6.00;98.00;;;;;;4959642;28;20456;-82
2021/04/03 01:27:29;;;;;;;11.90;6.10;;;5.90;98.60;;;;;;4968298;28;20476;-82
2021/04/03 01:30:03;;;;;;;8.57;6.00;;;6.00;98.10;;;;;;4967116;28;20446;-83
2021/04/03 01:32:46;;;;;;;10.50;5.97;;;6.00;97.80;;;;;;4949254;28;20473;-83
2021/04/03 01:35:38;;;;;;;9.30;5.97;;;6.00;98.30;;;;;;4948340;28;20446;-83
2021/04/03 01:38:30;;;;;;;10.93;6.27;;;6.10;98.10;;;;;;4949358;28;20468;-83
2021/04/03 01:40:57;;;;;;;10.87;6.13;;;6.10;97.90;;;;;;4949201;28;20446;-82
2021/04/03 01:43:28;;;;;;;8.40;6.07;;;6.10;98.20;;;;;;4963593;28;20446;-82
2021/04/03 01:45:55;;;;;;;9.40;6.10;;;6.20;98.30;;;;;;4969977;28;20460;-82
2021/04/03 01:48:22;;;;;;;10.90;5.80;;;6.20;98.00;;;;;;4969088;28;20500;-82
2021/04/03 01:50:49;;;;;;;7.63;5.53;;;6.30;97.60;;;;;;4952485;28;20765;-82
2021/04/03 01:53:18;;;;;;;8.50;5.57;;;6.10;97.60;;;;;;4965239;28;21549;-82
2021/04/03 01:55:45;;;;;;;8.10;5.80;;;6.10;97.50;;;;;;4952357;28;20494;-82
2021/04/03 01:58:11;;;;;;;7.97;6.20;;;6.10;97.40;;;;;;4962931;28;20519;-82
2021/04/03 02:00:38;;;;;;;7.87;6.17;;;6.20;98.10;;;;;;4968650;28;20444;-82
2021/04/03 02:03:05;;;;;;;6.27;5.30;;;6.10;97.60;;;;;;4948603;28;20241;-82
2021/04/03 02:05:33;;;;;;;8.17;5.73;;;6.10;97.40;;;;;;4947627;28;20525;-82
2021/04/03 02:08:00;;;;;;;8.57;5.47;;;6.20;97.60;;;;;;4950810;28;20438;-82
2021/04/03 02:10:29;;;;;;;7.67;5.80;;;6.30;97.40;;;;;;4947648;28;20865;-82
2021/04/03 02:12:56;;;;;;;11.23;6.10;;;6.30;97.20;;;;;;4967959;28;20540;-82
2021/04/03 02:15:23;;;;;;;8.03;5.17;;;6.20;97.40;;;;;;4950347;28;20485;-82
2021/04/03 02:17:51;;;;;;;6.90;5.23;;;6.20;97.40;;;;;;4966697;28;20480;-83
2021/04/03 02:20:17;;;;;;;9.40;6.00;;;6.30;96.90;;;;;;4965501;28;20557;-83
2021/04/03 02:22:44;;;;;;;7.73;5.73;;;6.30;97.30;;;;;;4950175;28;20446;-83
2021/04/03 02:25:16;;;;;;;9.20;5.87;;;6.20;97.70;;;;;;4967513;28;20449;-83
2021/04/03 02:27:43;;;;;;;6.47;5.50;;;6.10;97.60;;;;;;4944270;28;20481;-83
2021/04/03 02:30:16;;;;;;;8.40;5.10;;;6.20;97.70;;;;;;4951546;28;20488;-83
2021/04/03 02:32:48;;;;;;;8.07;5.50;;;6.20;97.60;;;;;;4961355;28;20565;-83
2021/04/03 02:35:18;;;;;;;6.10;5.57;;;6.20;97.60;;;;;;4951380;28;20461;-83
2021/04/03 02:37:51;;;;;;;7.07;5.07;;;6.20;97.40;;;;;;4951096;28;20983;-83
2021/04/03 02:40:19;;;;;;;8.60;5.10;;;6.30;97.40;;;;;;4951200;28;20862;-84
2021/04/03 02:42:51;;;;;;;7.07;5.80;;;6.30;97.40;;;;;;4947239;28;20843;-81
2021/04/03 02:45:20;;;;;;;7.03;5.30;;;6.30;97.90;;;;;;4945856;28;20474;-82
2021/04/03 02:47:48;;;;;;;7.10;5.40;;;6.20;97.50;;;;;;4962760;28;20474;-82
2021/04/03 02:50:27;;;;;;;6.63;5.80;;;6.10;98.20;;;;;;4963051;28;20457;-82
2021/04/03 02:52:55;;;;;;;8.40;5.60;;;6.10;98.60;;;;;;4965032;28;20806;-82
2021/04/03 02:55:28;;;;;;;9.80;5.47;;;6.00;98.10;;;;;;4952280;28;20450;-82
2021/04/03 02:57:55;;;;;;;8.97;5.53;;;6.00;98.30;;;;;;4948426;28;20454;-83
2021/04/03 03:00:24;;;;;;;8.30;5.70;;;5.80;98.30;;;;;;4947955;28;20442;-83
2021/04/03 03:02:50;;;;;;;6.70;5.30;;;5.80;98.30;;;;;;4950028;28;20739;-82
2021/04/03 03:05:17;;;;;;;8.73;5.17;;;5.80;98.20;;;;;;4948322;28;20445;-83
2021/04/03 03:07:46;;;;;;;7.73;5.40;;;5.80;98.40;;;;;;4946206;28;20591;-82
2021/04/03 03:10:17;;;;;;;6.97;5.47;;;5.90;98.10;;;;;;4950652;28;20478;-82
2021/04/03 03:12:48;;;;;;;9.20;5.50;;;5.90;98.00;;;;;;4950517;28;20961;-82
2021/04/03 03:15:16;;;;;;;7.63;4.63;;;5.80;98.20;;;;;;4951198;28;20461;-82
2021/04/03 03:17:44;;;;;;;5.90;4.93;;;5.80;98.00;;;;;;4947167;28;20445;-82
2021/04/03 03:20:12;;;;;;;8.97;5.93;;;5.80;98.30;;;;;;4948590;28;20963;-83
2021/04/03 03:22:38;;;;;;;10.93;7.60;;;5.80;98.20;;;;;;4950347;28;20509;-82
2021/04/03 03:25:05;;;;;;;5.00;4.50;;;5.90;98.20;;;;;;4949834;28;20450;-82
2021/04/03 03:27:34;;;;;;;5.87;5.27;;;5.90;97.90;;;;;;4951603;28;20461;-82
2021/04/03 03:30:02;;;;;;;7.20;5.00;;;5.80;97.80;;;;;;4952743;28;21176;-82
2021/04/03 03:32:29;;;;;;;10.60;5.90;;;5.70;98.10;;;;;;4948272;28;20542;-82
2021/04/03 03:34:56;;;;;;;8.70;5.23;;;5.70;98.20;;;;;;4947173;28;20543;-82
2021/04/03 03:37:23;;;;;;;7.57;4.87;;;5.60;98.50;;;;;;4951139;28;20448;-82
2021/04/03 03:39:50;;;;;;;8.37;5.00;;;5.50;98.40;;;;;;4948523;28;20457;-82
2021/04/03 03:42:16;;;;;;;7.13;5.30;;;5.60;98.30;;;;;;4950756;28;20807;-82
2021/04/03 03:44:42;;;;;;;8.20;5.40;;;5.40;98.60;;;;;;4952391;28;20459;-82
2021/04/03 03:47:08;;;;;;;7.30;4.80;;;5.50;98.60;;;;;;4965380;28;20217;-82
2021/04/03 03:49:34;;;;;;;7.23;5.07;;;5.40;98.80;;;;;;4949627;28;21177;-82
2021/04/03 03:52:00;;;;;;;9.03;5.13;;;5.40;98.90;;;;;;4951561;28;20462;-82
2021/04/03 03:54:25;;;;;;;10.60;4.93;;;5.40;99.10;;;;;;4962611;28;20494;-82
2021/04/03 03:56:51;;;;;;;6.93;5.10;;;5.30;99.10;;;;;;4950302;28;20196;-83
2021/04/03 03:59:17;;;;;;;8.13;5.00;;;5.40;99.00;;;;;;4961153;28;20187;-83
2021/04/03 04:01:43;;;;;;;7.00;5.00;;;5.40;99.20;;;;;;4960573;28;20783;-83
2021/04/03 04:04:08;;;;;;;8.50;4.90;;;5.30;99.30;;;;;;4950202;28;20526;-83
2021/04/03 04:06:34;;;;;;;9.33;4.90;;;5.30;99.50;;;;;;4943479;28;20697;-83
2021/04/03 04:09:03;;;;;;;8.80;4.77;;;5.30;99.40;;;;;;4950077;28;20178;-83
2021/04/03 04:11:29;;;;;;;8.23;4.70;;;5.30;99.00;;;;;;4965030;28;20198;-83
2021/04/03 04:13:54;;;;;;;8.47;4.70;;;5.30;98.80;;;;;;4967072;28;20498;-82
2021/04/03 04:16:20;;;;;;;8.30;4.67;;;5.30;99.10;;;;;;4946590;28;20186;-83
2021/04/03 04:18:46;;;;;;;8.80;4.57;;;5.20;99.20;;;;;;4961857;28;20366;-83
2021/04/03 04:21:11;;;;;;;7.03;4.80;;;5.30;99.20;;;;;;4945465;28;20190;-82
2021/04/03 04:23:37;;;;;;;10.60;4.63;;;5.30;99.30;;;;;;4949225;28;20230;-82
2021/04/03 04:26:02;;;;;;;8.40;4.47;;;5.30;99.20;;;;;;4962041;28;20191;-82
2021/04/03 04:28:28;;;;;;;8.40;4.23;;;5.30;99.10;;;;;;4964862;28;20290;-82
2021/04/03 04:30:56;;;;;;;5.83;4.30;;;5.40;98.90;;;;;;4957595;28;20186;-82
2021/04/03 04:33:22;;;;;;;5.97;4.07;;;5.40;98.90;;;;;;4962148;28;20226;-82
2021/04/03 04:35:48;;;;;;;7.80;4.40;;;5.40;99.00;;;;;;4947219;28;20496;-81
2021/04/03 04:38:13;;;;;;;6.80;4.67;;;5.30;99.10;;;;;;4950417;28;20376;-82
2021/04/03 04:40:39;;;;;;;7.37;4.40;;;5.40;99.30;;;;;;4953490;28;20193;-82
2021/04/03 04:43:04;;;;;;;5.90;4.90;;;5.30;99.20;;;;;;4965823;28;20194;-82
2021/04/03 04:45:30;;;;;;;7.03;3.93;;;5.40;99.20;;;;;;4953632;28;20560;-82
2021/04/03 04:47:56;;;;;;;5.73;3.97;;;5.30;99.30;;;;;;4968795;28;20201;-82
2021/04/03 04:50:21;;;;;;;6.80;4.20;;;5.20;99.80;;;;;;4952189;28;20206;-82
2021/04/03 04:52:48;;;;;;;8.70;4.23;;;5.10;99.90;;;;;;4950877;28;20225;-82
2021/04/03 04:55:14;;;;;;;4.40;3.93;;;5.20;99.70;;;;;;4951642;28;20647;-82
2021/04/03 04:57:39;;;;;;;7.73;4.03;;;5.20;99.60;;;;;;4967267;28;20453;-82
2021/04/03 05:00:06;;;;;;;6.40;4.17;;;5.20;99.90;;;;;;4969427;28;21648;-82
2021/04/03 05:02:32;;;;;;;5.57;4.60;;;5.20;99.80;;;;;;4952785;28;20205;-83
2021/04/03 05:04:58;;;;;;;6.10;3.57;;;5.30;99.40;;;;;;4967787;28;20477;-82
2021/04/03 05:07:23;;;;;;;5.20;3.53;;;5.30;98.80;;;;;;4967140;28;21054;-82
2021/04/03 05:09:49;;;;;;;7.67;3.80;;;5.30;98.80;;;;;;4955832;28;20284;-82
2021/04/03 05:12:14;;;;;;;5.53;3.70;;;5.30;98.70;;;;;;4965170;28;20209;-81
2021/04/03 05:14:42;;;;;;;5.27;3.40;;;5.30;98.60;;;;;;4952548;28;20727;-81
2021/04/03 05:17:08;;;;;;;4.67;4.20;;;5.30;98.40;;;;;;4958375;28;20636;-81
2021/04/03 05:19:33;;;;;;;4.67;3.30;;;5.30;98.50;;;;;;4952580;28;20492;-81
2021/04/03 05:21:59;;;;;;;7.80;3.80;;;5.20;98.90;;;;;;4955873;28;20191;-82
2021/04/03 05:24:25;;;;;;;7.70;4.00;;;5.10;99.20;;;;;;4967923;28;20256;-82
2021/04/03 05:26:50;;;;;;;8.13;4.40;;;5.10;99.40;;;;;;4953147;28;20205;-82
2021/04/03 05:29:16;;;;;;;7.33;4.20;;;5.10;99.60;;;;;;4955149;28;20183;-81
2021/04/03 05:31:42;;;;;;;4.40;3.50;;;5.20;99.40;;;;;;4956036;28;20600;-81
2021/04/03 05:34:07;;;;;;;5.50;4.13;;;5.30;98.90;;;;;;4960541;28;20214;-81
2021/04/03 05:36:33;;;;;;;6.40;4.07;;;5.20;99.10;;;;;;4969140;28;20191;-81
2021/04/03 05:38:59;;;;;;;6.50;3.73;;;5.30;99.10;;;;;;4960217;28;20348;-82
2021/04/03 05:41:24;;;;;;;5.90;4.30;;;5.40;98.80;;;;;;4955399;28;20326;-80
2021/04/03 05:43:52;;;;;;;4.27;3.80;;;5.40;98.30;;;;;;4955365;28;20238;-80
2021/04/03 05:46:19;;;;;;;4.90;4.23;;;5.40;98.60;;;;;;4953442;28;20205;-81
2021/04/03 05:48:51;;;;;;;9.20;4.93;;;5.40;98.80;;;;;;4970546;28;20453;-82
2021/04/03 05:51:18;;;;;;;4.50;4.10;;;5.40;98.80;;;;;;4955659;28;20456;-82
2021/04/03 05:53:44;;;;;;;10.37;8.57;;;5.50;98.60;;;;;;4957646;28;20488;-81
2021/04/03 05:56:10;;;;;;;6.40;5.73;;;5.40;98.50;;;;;;4957436;28;20454;-82
2021/04/03 05:58:37;;;;;;;7.70;7.00;;;5.40;98.90;;;;;;4954967;28;20501;-82
2021/04/03 06:01:07;;;;;;;4.80;4.07;;;5.40;98.80;;;;;;4957944;28;20864;-81
2021/04/03 06:03:34;;;;;;;8.03;3.70;;;5.50;98.80;;;;;;4960625;28;20472;-81
2021/04/03 06:06:00;;;;;;;5.83;4.07;;;5.40;99.20;;;;;;4971527;28;20443;-82
2021/04/03 06:08:33;;;;;;;4.83;3.50;;;5.50;98.60;;;;;;4969853;28;20504;-82
2021/04/03 06:11:22;;;;;;;6.07;4.10;;;5.60;98.90;;;;;;4970531;28;20454;-82
2021/04/03 06:13:57;;;;;;;8.60;3.80;;;5.60;99.00;;;;;;4954903;28;20489;-81
2021/04/03 06:16:29;;;;;;;9.10;4.23;;;5.60;98.80;;;;;;4971983;28;20479;-81
2021/04/03 06:19:11;;;;;;;6.70;4.00;;;5.70;98.60;;;;;;4970927;28;22081;-82
2021/04/03 06:22:00;;;;;;;5.43;3.73;;;5.60;98.90;;;;;;4971239;28;20439;-82
2021/04/03 06:24:37;;;;;;;5.10;4.17;;;5.80;98.90;;;;;;4973605;28;21066;-82
2021/04/03 06:27:16;;;;;;;6.40;4.00;;;6.00;98.80;;;;;;4966488;28;21485;-82
2021/04/03 06:29:48;;;;;;;6.50;3.87;;;6.10;97.80;;;;;;4954781;28;20445;-82
2021/04/03 06:32:18;;;;;;;6.30;3.77;;;6.30;98.30;;;;;;4946468;28;20791;-82
2021/04/03 06:34:49;;;;;;;5.43;3.50;;;6.40;98.60;;;;;;4957910;28;20453;-83
2021/04/03 06:37:33;;;;;;;5.30;3.60;;;6.60;97.20;;;;;;4949149;28;20435;-83
2021/04/03 06:40:11;;;;;;;3.40;2.93;;;6.70;97.20;;;;;;4951345;28;20607;-83
2021/04/03 06:42:55;;;;;;;6.37;3.20;;;6.80;96.70;;;;;;4956900;28;20438;-83
2021/04/03 06:45:30;;;;;;;5.00;3.20;;;6.90;96.40;;;;;;4969957;28;20453;-83
2021/04/03 06:48:01;;;;;;;4.67;3.60;;;6.80;96.30;;;;;;4956231;28;21673;-83
2021/04/03 06:50:30;;;;;;;5.20;3.20;;;6.80;96.40;;;;;;4954624;28;20559;-83
2021/04/03 06:53:04;;;;;;;4.30;3.13;;;6.80;96.70;;;;;;4970866;28;20845;-83
2021/04/03 06:55:31;;;;;;;4.97;3.40;;;6.90;95.90;;;;;;4953741;28;20505;-83
2021/04/03 06:57:59;;;;;;;3.63;2.60;;;6.90;96.40;;;;;;4953678;28;20892;-83
2021/04/03 07:00:26;;;;;;;3.70;2.80;;;6.90;95.20;;;;;;4954875;28;20999;-83
2021/04/03 07:02:58;;;;;;;3.13;2.80;;;7.00;95.20;;;;;;4971825;28;20443;-83
2021/04/03 07:05:26;;;;;;;3.80;2.93;;;7.00;95.60;;;;;;4951980;28;20446;-83
2021/04/03 07:07:54;;;;;;;3.27;2.70;;;7.10;95.70;;;;;;4957500;28;20863;-83
2021/04/03 07:10:20;;;;;;;3.40;3.10;;;7.20;95.50;;;;;;4953217;28;20453;-82
2021/04/03 07:12:49;;;;;;;4.27;2.73;;;7.50;95.40;;;;;;4952612;28;20853;-82
2021/04/03 07:15:15;;;;;;;3.10;2.33;;;7.40;95.30;;;;;;4954907;28;20570;-82
2021/04/03 07:17:42;;;;;;;3.27;2.23;;;7.40;94.10;;;;;;4970971;28;20805;-82
2021/04/03 07:20:22;;;;;;;4.27;2.50;;;7.50;94.40;;;;;;4955237;28;20522;-82
2021/04/03 07:23:01;;;;;;;4.73;3.10;;;7.60;94.20;;;;;;4952184;28;20446;-83
2021/04/03 07:25:30;;;;;;;6.60;3.40;;;7.50;94.60;;;;;;4953389;28;20994;-82
2021/04/03 07:27:58;;;;;;;3.23;3.00;;;7.60;94.40;;;;;;4952027;28;20465;-82
2021/04/03 07:30:35;;;;;;;3.57;2.87;;;7.50;94.20;;;;;;4952706;28;20868;-83
2021/04/03 07:33:15;;;;;;;3.40;3.10;;;7.70;94.50;;;;;;4952973;28;20485;-83
2021/04/03 07:35:48;;;;;;;3.43;2.40;;;7.80;93.90;;;;;;4973799;28;20799;-83
2021/04/03 07:38:20;;;;;;;3.53;2.90;;;7.90;93.70;;;;;;4954110;28;20457;-82
2021/04/03 07:40:59;;;;;;;7.10;4.10;;;7.80;93.60;;;;;;4952689;28;20772;-81
2021/04/03 07:43:36;;;;;;;3.73;2.60;;;7.90;94.00;;;;;;4953304;28;20455;-82
2021/04/03 07:46:25;;;;;;;4.63;2.80;;;8.20;93.20;;;;;;4955606;28;20965;-82
2021/04/03 07:48:59;;;;;;;6.50;3.00;;;8.50;91.90;;;;;;4951090;28;20458;-82
2021/04/03 07:51:25;;;;;;;5.97;3.20;;;8.20;92.00;;;;;;4967253;28;20445;-83
2021/04/03 07:53:52;;;;;;;3.40;2.90;;;8.00;92.70;;;;;;4951846;28;20477;-82
2021/04/03 07:56:22;;;;;;;7.53;3.87;;;8.00;93.00;;;;;;4949147;28;20182;-82
2021/04/03 07:58:53;;;;;;;3.70;2.70;;;8.00;93.00;;;;;;4955639;28;20804;-82
2021/04/03 08:01:21;;;;;;;5.23;3.87;;;8.00;93.40;;;;;;4968290;28;20854;-82
2021/04/03 08:03:54;;;;;;;5.43;3.50;;;8.30;92.90;;;;;;4956413;28;20480;-82
2021/04/03 08:06:27;;;;;;;3.40;3.10;;;8.60;92.70;;;;;;4950745;28;20438;-82
2021/04/03 08:08:53;;;;;;;5.70;4.53;;;8.60;92.00;;;;;;4952263;28;20465;-82
2021/04/03 08:11:19;;;;;;;8.07;3.73;;;8.90;92.30;;;;;;4955496;28;20447;-83
2021/04/03 08:13:48;;;;;;;3.83;2.50;;;9.00;90.90;;;;;;4951839;28;20221;-83
2021/04/03 08:16:15;;;;;;;4.77;3.33;;;8.70;91.00;;;;;;4950814;28;20243;-82
2021/04/03 08:18:46;;;;;;;4.80;2.83;;;9.00;91.40;;;;;;4954729;28;20792;-83
2021/04/03 08:21:12;;;;;;;3.60;2.40;;;9.10;90.80;;;;;;4951684;28;20539;-83
2021/04/03 08:23:48;;;;;;;4.50;3.33;;;9.00;90.70;;;;;;4956168;28;20453;-83
2021/04/03 08:26:16;;;;;;;6.27;3.40;;;9.00;90.40;;;;;;4951790;28;20447;-82
2021/04/03 08:28:42;;;;;;;4.30;3.47;;;9.00;90.30;;;;;;4952467;28;20456;-82
2021/04/03 08:31:20;;;;;;;3.03;2.73;;;9.00;90.60;;;;;;4954554;28;20488;-82
2021/04/03 08:33:47;;;;;;;3.00;2.73;;;9.10;90.80;;;;;;4956266;28;20488;-83
2021/04/03 08:36:18;;;;;;;3.07;2.60;;;9.20;90.70;;;;;;4950984;28;20839;-83
2021/04/03 08:38:44;;;;;;;5.67;2.70;;;9.00;90.20;;;;;;4961360;28;20472;-82
2021/04/03 08:41:21;;;;;;;2.30;2.10;;;8.80;90.60;;;;;;4954075;28;20472;-82
2021/04/03 08:43:48;;;;;;;5.27;2.47;;;8.60;91.00;;;;;;4954695;28;20478;-82
2021/04/03 08:46:15;;;;;;;5.33;2.90;;;8.30;90.80;;;;;;4952780;28;20470;-82
2021/04/03 08:48:46;;;;;;;5.80;2.80;;;8.00;92.00;;;;;;4952866;28;20554;-83
2021/04/03 08:51:13;;;;;;;4.93;2.87;;;8.10;92.70;;;;;;4955311;28;20590;-82
2021/04/03 08:53:55;;;;;;;5.27;2.97;;;8.10;92.50;;;;;;4950436;28;20867;-82
2021/04/03 08:56:35;;;;;;;7.33;3.00;;;7.90;91.90;;;;;;4956026;28;21264;-83
2021/04/03 08:59:12;;;;;;;3.80;2.47;;;8.20;92.80;;;;;;4968182;28;20545;-83
2021/04/03 09:01:47;;;;;;;5.10;3.00;;;8.50;92.20;;;;;;4953514;28;20816;-83
2021/04/03 09:04:13;;;;;;;2.83;2.57;;;8.70;91.60;;;;;;4954865;28;20512;-82
2021/04/03 09:06:57;;;;;;;2.80;2.60;;;9.10;91.10;;;;;;4951420;28;20449;-83
2021/04/03 09:09:31;;;;;;;2.90;2.70;;;9.80;91.40;;;;;;4950577;28;20450;-82
2021/04/03 09:12:07;;;;;;;3.30;3.00;;;10.30;89.70;;;;;;4952375;28;20511;-82
2021/04/03 09:14:38;;;;;;;4.43;2.87;;;10.40;90.40;;;;;;4967443;28;20926;-82
2021/04/03 09:17:19;;;;;;;2.80;2.50;;;10.20;83.10;;;;;;4968420;28;20450;-82
2021/04/03 09:19:46;;;;;;;3.43;3.13;;;9.30;84.80;;;;;;4956215;28;20456;-83
2021/04/03 09:22:13;;;;;;;5.77;3.17;;;9.50;88.50;;;;;;4967113;28;20454;-83
2021/04/03 09:24:41;;;;;;;4.03;3.10;;;9.90;84.40;;;;;;4973728;28;20446;-83
2021/04/03 09:27:20;;;;;;;5.53;2.70;;;9.80;85.20;;;;;;4966373;28;20446;-83
2021/04/03 09:29:55;;;;;;;4.30;2.80;;;10.00;87.50;;;;;;4955744;28;21059;-83
2021/04/03 09:32:21;;;;;;;4.00;2.90;;;10.20;84.90;;;;;;4970339;28;20452;-82
2021/04/03 09:34:46;;;;;;;2.80;2.60;;;10.70;86.10;;;;;;4957880;28;20460;-82
2021/04/03 09:37:19;;;;;;;4.87;2.90;;;10.50;80.90;;;;;;4955685;28;21014;-82
2021/04/03 09:39:48;;;;;;;3.57;3.03;;;10.30;83.00;;;;;;4961268;28;20183;-82
2021/04/03 09:42:15;;;;;;;4.43;2.50;;;9.90;83.70;;;;;;4957038;28;20501;-82
2021/04/03 09:44:41;;;;;;;3.10;2.80;;;9.40;85.40;;;;;;4955805;28;20449;-83
2021/04/03 09:47:24;;;;;;;5.87;2.50;;;9.20;87.00;;;;;;4973004;28;20461;-83
2021/04/03 09:49:55;;;;;;;5.33;2.83;;;9.30;85.30;;;;;;4959418;28;20480;-83
2021/04/03 09:52:21;;;;;;;3.73;2.50;;;9.30;86.40;;;;;;4977461;28;20477;-83
2021/04/03 09:54:48;;;;;;;5.13;2.33;;;9.40;85.40;;;;;;4974827;28;20453;-82
2021/04/03 09:57:15;;;;;;;2.80;2.60;;;10.00;84.10;;;;;;4973050;28;20470;-82
2021/04/03 09:59:41;;;;;;;4.83;3.53;;;10.40;80.30;;;;;;4958693;28;20486;-82
2021/04/03 10:02:08;;;;;;;4.40;2.50;;;10.50;79.70;;;;;;4955443;28;20459;-82
2021/04/03 10:04:34;;;;;;;5.17;2.90;;;10.80;84.10;;;;;;4959303;28;20525;-82
2021/04/03 10:07:00;;;;;;;4.53;3.07;;;10.60;74.40;;;;;;4957949;28;20736;-82
2021/04/03 10:09:27;;;;;;;2.90;2.47;;;10.40;77.30;;;;;;4956974;28;20470;-82
2021/04/03 10:11:53;;;;;;;5.17;2.43;;;10.70;79.00;;;;;;4955594;28;20593;-83
2021/04/03 10:14:21;;;;;;;3.30;2.77;;;11.10;80.20;;;;;;4953700;28;20491;-82
2021/04/03 10:16:52;;;;;;;3.40;3.10;;;11.70;85.10;;;;;;4975039;28;20840;-83
2021/04/03 10:19:18;;;;;;;4.43;3.30;;;12.00;76.70;;;;;;4957060;28;20462;-82
2021/04/03 10:21:44;;;;;;;3.80;2.90;;;12.20;73.90;;;;;;4959294;28;20521;-82
2021/04/03 10:24:10;;;;;;;4.13;2.43;;;12.50;70.80;;;;;;4964441;28;20312;-82
2021/04/03 10:26:36;;;;;;;3.53;3.00;;;12.80;68.30;;;;;;4971376;28;20238;-82
2021/04/03 10:29:03;;;;;;;3.77;2.60;;;12.60;68.00;;;;;;4966781;28;20696;-82
2021/04/03 10:31:28;;;;;;;4.50;2.93;;;11.90;67.90;;;;;;4972882;28;20247;-83
2021/04/03 10:33:54;;;;;;;2.53;2.33;;;11.70;70.10;;;;;;4969766;28;20480;-82
2021/04/03 10:36:20;;;;;;;6.00;2.97;;;11.70;69.30;;;;;;4955627;28;20864;-82
2021/04/03 10:38:48;;;;;;;5.43;2.93;;;11.70;71.30;;;;;;4974092;28;20200;-82
2021/04/03 10:41:15;;;;;;;4.90;3.07;;;12.30;68.70;;;;;;4954308;28;20456;-82
2021/04/03 10:43:41;;;;;;;4.57;2.40;;;11.80;66.10;;;;;;4969786;28;20185;-82
2021/04/03 10:46:07;;;;;;;4.10;2.60;;;11.10;64.30;;;;;;4953503;28;20938;-81
2021/04/03 10:48:42;;;;;;;5.07;2.93;;;10.90;65.20;;;;;;4971607;28;20491;-82
2021/04/03 10:51:07;;;;;;;3.27;2.97;;;10.70;66.30;;;;;;4956388;28;20197;-81
2021/04/03 10:53:36;;;;;;;3.83;2.50;;;11.00;68.70;;;;;;4952707;28;20480;-81
2021/04/03 10:56:02;;;;;;;4.87;2.63;;;11.10;67.00;;;;;;4967902;28;20365;-82
2021/04/03 10:58:28;;;;;;;2.43;2.10;;;11.60;66.00;;;;;;4970549;28;21583;-82
2021/04/03 11:00:58;;;;;;;4.03;2.53;;;12.10;67.00;;;;;;4952616;28;20438;-81
2021/04/03 11:03:26;;;;;;;4.97;2.97;;;12.50;65.00;;;;;;4970679;28;20231;-83
2021/04/03 11:06:04;;;;;;;3.23;2.20;;;12.50;61.20;;;;;;4954590;28;20457;-82
2021/04/03 11:08:30;;;;;;;10.10;2.80;;;12.40;60.00;;;;;;4968277;28;20550;-83
2021/04/03 11:10:56;;;;;;;3.67;2.23;;;12.90;67.10;;;;;;4970211;28;20464;-82
2021/04/03 11:13:22;;;;;;;3.30;2.60;;;13.30;63.70;;;;;;4967668;28;21162;-82
2021/04/03 11:15:48;;;;;;;3.67;2.77;;;13.50;60.10;;;;;;4953652;28;20475;-82
2021/04/03 11:18:15;;;;;;;2.60;2.20;;;13.30;61.30;;;;;;4968703;28;20817;-82
2021/04/03 11:20:40;;;;;;;7.50;2.70;;;13.70;62.60;;;;;;4969212;28;20186;-82
2021/04/03 11:23:06;;;;;;;3.70;2.83;;;13.70;58.60;;;;;;4970093;28;20916;-82
2021/04/03 11:25:33;;;;;;;3.87;2.20;;;13.80;58.00;;;;;;4968246;28;20214;-83
2021/04/03 11:28:01;;;;;;;3.13;2.80;;;13.30;58.00;;;;;;4952181;28;20227;-82
2021/04/03 11:30:26;;;;;;;6.20;2.80;;;11.80;59.60;;;;;;4969806;28;20450;-82
2021/04/03 11:32:52;;;;;;;3.70;3.03;;;12.00;64.40;;;;;;4969060;28;20480;-82
2021/04/03 11:35:21;;;;;;;2.20;1.70;;;12.50;66.40;;;;;;4953828;28;20616;-83
2021/04/03 11:37:52;;;;;;;4.60;2.83;;;12.90;57.00;;;;;;4956620;28;20733;-83
2021/04/03 11:40:34;;;;;;;4.33;2.50;;;12.70;56.50;;;;;;4969396;28;20453;-83
2021/04/03 11:45:46;;;;;;;3.40;2.50;;;11.30;63.10;;;;;;4956855;28;20839;-83
2021/04/03 11:48:12;;;;;;;5.10;2.47;;;11.20;63.80;;;;;;4953643;28;20526;-83
2021/04/03 11:50:38;;;;;;;3.50;2.53;;;11.10;64.60;;;;;;4965897;28;20663;-82
2021/04/03 11:53:05;;;;;;;4.77;2.20;;;11.50;67.10;;;;;;4953368;28;20225;-82
2021/04/03 11:55:31;;;;;;;5.10;2.40;;;12.00;63.40;;;;;;4971484;28;20219;-82
2021/04/03 11:57:58;;;;;;;5.80;2.93;;;12.00;62.60;;;;;;4955860;28;20567;-82
2021/04/03 12:00:24;;;;;;;2.43;2.23;;;12.50;64.10;;;;;;4953207;28;20287;-82
2021/04/03 12:02:50;;;;;;;4.60;2.60;;;13.80;63.70;;;;;;4954456;28;20496;-83
2021/04/03 12:05:18;;;;;;;4.47;2.80;;;15.00;58.80;;;;;;4969867;28;20504;-83
2021/04/03 12:07:44;;;;;;;4.97;2.60;;;16.00;55.00;;;;;;4953480;28;20656;-82
2021/04/03 12:10:17;;;;;;;3.43;2.30;;;15.80;50.60;;;;;;4972391;28;20818;-82
2021/04/03 12:12:43;;;;;;;4.73;2.70;;;14.50;48.40;;;;;;4973784;28;20206;-83
2021/04/03 12:15:13;;;;;;;3.37;2.00;;;14.10;53.20;;;;;;4973291;28;20450;-82
2021/04/03 12:17:42;;;;;;;2.70;2.10;;;14.20;53.90;;;;;;4956547;28;20434;-82
2021/04/03 12:20:12;;;;;;;3.13;2.57;;;14.30;53.90;;;;;;4955797;28;20446;-82
2021/04/03 12:22:38;;;;;;;3.20;2.70;;;13.90;52.40;;;;;;4969136;28;20935;-83
2021/04/03 12:25:04;;;;;;;6.20;2.50;;;13.30;53.10;;;;;;4953822;28;20473;-82
2021/04/03 12:27:54;;;;;;;3.63;2.63;;;13.20;55.20;;;;;;4968230;28;20473;-84
2021/04/03 12:30:21;;;;;;;3.27;2.20;;;13.10;54.50;;;;;;4956804;28;20810;-82
2021/04/03 12:32:49;;;;;;;5.40;2.43;;;12.90;53.60;;;;;;4971046;28;20548;-83
2021/04/03 12:35:20;;;;;;;2.87;2.40;;;12.70;54.70;;;;;;4954807;28;20499;-83
2021/04/03 12:37:51;;;;;;;3.60;2.87;;;13.60;54.20;;;;;;4956610;28;20460;-84
2021/04/03 12:40:18;;;;;;;5.07;2.10;;;14.00;55.00;;;;;;4950422;28;20454;-83
2021/04/03 12:42:43;;;;;;;4.60;2.13;;;13.10;52.00;;;;;;4951251;28;20522;-83
2021/04/03 12:45:18;;;;;;;1.67;1.50;;;13.20;54.40;;;;;;4956501;28;20991;-83
2021/04/03 12:47:46;;;;;;;3.07;2.27;;;13.20;52.40;;;;;;4956613;28;20236;-83
2021/04/03 12:50:16;;;;;;;4.03;2.30;;;12.90;50.30;;;;;;4956867;28;20989;-83
2021/04/03 12:52:42;;;;;;;3.63;2.30;;;13.00;51.40;;;;;;4955814;28;21540;-83
2021/04/03 12:55:11;;;;;;;1.40;1.30;;;13.20;52.50;;;;;;4956198;28;20465;-84
2021/04/03 12:57:37;;;;;;;4.43;2.00;;;13.20;52.20;;;;;;4941420;28;20449;-84
2021/04/03 13:00:05;;;;;;;2.30;1.70;;;13.50;51.60;;;;;;4958771;28;20453;-84
2021/04/03 13:02:31;;;;;;;2.70;1.90;;;13.80;49.80;;;;;;4958076;28;20242;-83
2021/04/03 13:05:00;;;;;;;2.57;1.90;;;13.40;48.30;;;;;;4960465;28;21008;-83
2021/04/03 13:07:29;;;;;;;6.27;2.00;;;13.30;50.70;;;;;;4973404;28;20340;-83